CheckWX is a tool to help pilots better visualize weather data.  It is not intended as a substitute for an official pre-flight weather briefing.

19:59:30 UTC

UTFN TAF
Namangan Airport
Namangan, Uzbekistan
TAF UTFN 251700Z 2518/2618 34010KT 9999 NSC TEMPO 2518/2606 VRB12KT SCT050CB TEMPO 2606/2616 09010G20KT BKN050CB

Jun-25@
18:00 UTC

Jun-25 @ 18:00 UTC

Jun-26@
18:00 UTC

Jun-26 @ 18:00 UTC

TAF UTFN 251700Z 2518/2618 34010KT 9999 NSC
Wind
  • 340° at 10 KTS
Cloud Levels
  • No significant clouds

Jun-25@
18:00 UTC

Jun-25 @ 18:00 UTC

Jun-26@
06:00 UTC

Jun-26 @ 06:00 UTC

TEMPO 2518/2606 VRB12KT SCT050CB

Temporary

Temporary Changes expected for less than half the time period

Wind
  • Variable at 12 KTS
Cloud Levels
  • Scattered at 5,000' AGL

Jun-26@
06:00 UTC

Jun-26 @ 06:00 UTC

Jun-26@
16:00 UTC

Jun-26 @ 16:00 UTC

TEMPO 2606/2616 09010G20KT BKN050CB

Temporary

Temporary Changes expected for less than half the time period

Wind
  • 090° at 10 KTS
  • {Gusting to 20 KTS
Cloud Levels
  • Broken at 5,000' AGL